createdAt,value
2023-05-10T00:00:07.296Z,1.38
2023-05-10T00:05:15.358Z,1.85
2023-05-10T00:10:17.836Z,1.13
2023-05-10T00:15:19.852Z,1.70
2023-05-10T00:20:21.717Z,1.20
2023-05-10T00:25:23.452Z,1.38
2023-05-10T00:30:25.640Z,1.60
2023-05-10T00:35:27.779Z,1.60
2023-05-10T00:40:29.936Z,2.10
2023-05-10T00:45:38.531Z,1.50
2023-05-10T00:50:41.450Z,1.33
2023-05-10T00:55:43.771Z,1.52
2023-05-10T01:00:47.657Z,1.55
2023-05-10T01:05:51.210Z,1.60
2023-05-10T01:10:53.951Z,1.40
2023-05-10T01:15:57.042Z,1.27
2023-05-10T01:21:18.256Z,1.33
2023-05-10T01:26:54.719Z,1.40
2023-05-10T01:31:59.488Z,1.50
2023-05-10T01:37:10.546Z,1.33
2023-05-10T01:42:21.211Z,1.63
2023-05-10T01:47:53.227Z,1.40
2023-05-10T01:52:56.650Z,1.08
2023-05-10T01:58:09.135Z,1.55
2023-05-10T02:03:13.213Z,1.67
2023-05-10T02:08:17.244Z,1.60
2023-05-10T02:13:20.735Z,1.40
2023-05-10T02:18:25.308Z,1.20
2023-05-10T02:23:27.640Z,1.88
2023-05-10T02:28:30.337Z,1.63
2023-05-10T02:33:33.764Z,1.70
2023-05-10T02:38:37.637Z,1.63
2023-05-10T02:43:41.996Z,1.33
2023-05-10T02:48:43.940Z,1.67
2023-05-10T02:53:49.013Z,1.50
2023-05-10T02:58:50.996Z,1.60
2023-05-10T03:03:52.748Z,1.58
2023-05-10T03:08:54.672Z,1.75
2023-05-10T03:14:23.515Z,1.58
2023-05-10T03:19:56.525Z,1.30
2023-05-10T03:25:02.364Z,1.35
2023-05-10T03:30:09.561Z,1.63
2023-05-10T03:35:14.402Z,1.55
2023-05-10T03:40:17.327Z,1.63
2023-05-10T03:45:19.894Z,1.17
2023-05-10T03:50:24.713Z,1.58
2023-05-10T03:55:26.892Z,1.20
2023-05-10T04:00:28.830Z,1.30
2023-05-10T04:05:31.399Z,1.30
2023-05-10T04:10:33.784Z,1.30
2023-05-10T04:15:36.908Z,1.13
2023-05-10T04:20:38.740Z,1.50
2023-05-10T04:25:40.675Z,1.50
2023-05-10T04:30:45.075Z,1.50
2023-05-10T04:35:47.016Z,1.20
2023-05-10T04:40:49.271Z,1.38
2023-05-10T04:45:51.997Z,1.73
2023-05-10T04:50:54.080Z,1.33
2023-05-10T04:55:56.001Z,1.27
2023-05-10T05:00:57.979Z,1.10
2023-05-10T05:06:01.134Z,1.38
2023-05-10T05:11:04.153Z,1.30
2023-05-10T05:16:06.678Z,1.40
2023-05-10T05:21:19.186Z,1.30
2023-05-10T05:26:22.438Z,1.50
2023-05-10T05:31:24.317Z,1.27
2023-05-10T05:36:26.479Z,1.25
2023-05-10T05:41:28.370Z,1.40
2023-05-10T05:46:30.324Z,1.15
2023-05-10T05:51:32.195Z,1.60
2023-05-10T05:56:34.068Z,1.20
2023-05-10T06:01:36.087Z,1.50
2023-05-10T06:06:37.861Z,1.50
2023-05-10T06:11:39.755Z,1.30
2023-05-10T06:16:41.801Z,1.40
2023-05-10T06:21:43.784Z,1.02
2023-05-10T06:26:45.688Z,1.30
2023-05-10T06:31:47.677Z,1.33
2023-05-10T06:36:49.667Z,1.27
2023-05-10T06:41:51.528Z,1.38
2023-05-10T06:46:56.931Z,1.25
2023-05-10T06:51:58.942Z,1.38
2023-05-10T06:57:01.920Z,1.08
2023-05-10T07:02:06.586Z,1.17
2023-05-10T07:07:08.584Z,1.27
2023-05-10T07:12:13.462Z,1.58
2023-05-10T07:17:16.767Z,1.42
2023-05-10T07:22:18.690Z,1.25
2023-05-10T07:27:20.591Z,1.35
2023-05-10T07:32:22.817Z,1.75
2023-05-10T07:37:24.904Z,1.45
2023-05-10T07:42:26.791Z,1.35
2023-05-10T07:47:28.768Z,1.45
2023-05-10T07:52:30.688Z,1.42
2023-05-10T07:57:32.549Z,1.30
2023-05-10T08:02:36.846Z,1.38
2023-05-10T08:07:39.142Z,1.70
2023-05-10T08:12:41.168Z,1.27
2023-05-10T08:17:44.165Z,1.10
2023-05-10T08:22:47.043Z,1.35
2023-05-10T08:27:49.234Z,1.95
2023-05-10T08:32:51.380Z,1.67
2023-05-10T08:37:53.346Z,1.42
2023-05-10T08:43:16.289Z,1.42
2023-05-10T08:48:18.751Z,1.42
2023-05-10T08:53:22.176Z,1.52
2023-05-10T08:58:24.080Z,1.15
2023-05-10T09:03:26.138Z,1.52
2023-05-10T09:08:28.386Z,1.20
2023-05-10T09:13:31.015Z,1.52
2023-05-10T09:18:33.064Z,1.50
2023-05-10T09:23:35.020Z,1.70
2023-05-10T09:28:55.720Z,1.80
2023-05-10T09:33:57.743Z,1.73
2023-05-10T09:38:59.707Z,1.33
2023-05-10T09:44:01.694Z,1.60
2023-05-10T09:49:03.604Z,2.17
2023-05-10T09:54:16.745Z,2.15
2023-05-10T09:59:19.640Z,1.58
2023-05-10T10:04:22.702Z,2.10
2023-05-10T10:09:25.499Z,2.35
2023-05-10T10:14:27.488Z,1.50
2023-05-10T10:19:29.668Z,1.85
2023-05-10T10:24:31.858Z,1.90
2023-05-10T10:29:46.843Z,1.75
2023-05-10T10:34:49.344Z,1.77
2023-05-10T10:39:51.513Z,1.63
2023-05-10T10:45:12.981Z,1.60
2023-05-10T10:50:15.007Z,1.83
2023-05-10T10:55:25.955Z,1.80
2023-05-10T11:00:30.231Z,1.75
2023-05-10T11:05:52.977Z,1.65
2023-05-10T11:11:00.670Z,1.63
2023-05-10T11:16:19.048Z,1.98
2023-05-10T11:21:21.667Z,1.83
2023-05-10T11:26:26.559Z,1.75
2023-05-10T11:31:29.672Z,1.83
2023-05-10T11:36:37.402Z,1.67
2023-05-10T11:46:45.014Z,2.08
2023-05-10T11:51:46.962Z,1.70
2023-05-10T11:56:51.129Z,2.00
2023-05-10T12:01:53.215Z,1.95
2023-05-10T12:06:55.116Z,1.70
2023-05-10T12:12:00.306Z,1.70
2023-05-10T12:17:02.413Z,1.67
2023-05-10T12:22:06.919Z,1.55
2023-05-10T12:27:13.480Z,1.92
2023-05-10T12:32:15.412Z,1.27
2023-05-10T12:37:17.315Z,1.90
2023-05-10T12:42:19.334Z,1.70
2023-05-10T12:47:21.224Z,1.77
2023-05-10T12:52:23.064Z,1.48
2023-05-10T12:57:25.025Z,2.38
2023-05-10T13:02:27.057Z,2.30
2023-05-10T13:07:29.133Z,1.75
2023-05-10T13:12:30.961Z,1.35
2023-05-10T13:17:34.131Z,1.50
2023-05-10T13:22:40.525Z,1.50
2023-05-10T13:27:42.679Z,1.65
2023-05-10T13:32:44.652Z,1.70
2023-05-10T13:37:46.694Z,1.65
2023-05-10T13:42:48.686Z,1.33
2023-05-10T13:47:50.595Z,1.23
2023-05-10T13:52:52.513Z,1.60
2023-05-10T13:57:54.381Z,1.58
2023-05-10T14:02:56.616Z,1.48
2023-05-10T14:07:58.687Z,1.50
2023-05-10T14:13:00.699Z,1.55
2023-05-10T14:18:02.988Z,1.40
2023-05-10T14:23:04.941Z,1.40
2023-05-10T14:28:06.863Z,1.40
2023-05-10T14:33:09.011Z,1.50
2023-05-10T14:38:11.882Z,1.42
2023-05-10T14:43:13.834Z,1.38
2023-05-10T14:48:18.367Z,1.50
2023-05-10T14:53:20.303Z,1.45
2023-05-10T14:58:22.359Z,2.35
2023-05-10T15:03:24.450Z,1.52
2023-05-10T15:08:27.141Z,1.58
2023-05-10T15:13:29.055Z,1.33
2023-05-10T15:18:30.984Z,1.80
2023-05-10T15:23:33.328Z,1.30
2023-05-10T15:28:35.103Z,1.33
2023-05-10T15:33:39.780Z,1.30
2023-05-10T15:38:41.663Z,1.80
2023-05-10T15:43:43.582Z,1.98
2023-05-10T15:48:45.519Z,2.15
2023-05-10T15:54:05.361Z,1.98
2023-05-10T15:59:11.065Z,2.03
2023-05-10T16:04:13.026Z,3.35
2023-05-10T16:09:15.725Z,2.03
2023-05-10T16:14:17.697Z,1.92
2023-05-10T16:19:19.655Z,2.15
2023-05-10T16:24:21.581Z,2.05
2023-05-10T16:29:23.578Z,1.98
2023-05-10T16:34:25.535Z,2.08
2023-05-10T16:39:30.173Z,1.85
2023-05-10T16:44:32.178Z,1.75
2023-05-10T16:49:37.528Z,1.63
2023-05-10T16:54:42.725Z,2.03
2023-05-10T16:59:44.523Z,2.58
2023-05-10T17:04:46.535Z,1.95
2023-05-10T17:09:48.947Z,1.98
2023-05-10T17:14:51.134Z,1.80
2023-05-10T17:19:53.067Z,2.10
2023-05-10T17:24:55.241Z,2.00
2023-05-10T17:29:57.838Z,2.22
2023-05-10T17:34:59.923Z,1.60
2023-05-10T17:40:04.161Z,1.98
2023-05-10T17:45:06.960Z,2.20
2023-05-10T17:50:10.656Z,1.90
2023-05-10T17:55:13.523Z,2.22
2023-05-10T18:00:16.429Z,1.95
2023-05-10T18:05:18.835Z,2.90
2023-05-10T18:10:20.975Z,2.38
2023-05-10T18:15:23.137Z,2.67
2023-05-10T18:20:25.026Z,1.88
2023-05-10T18:25:26.968Z,2.10
2023-05-10T18:30:28.845Z,1.77
2023-05-10T18:35:30.757Z,1.98
2023-05-10T18:40:32.924Z,1.90
2023-05-10T18:45:35.622Z,1.83
2023-05-10T18:50:38.771Z,1.50
2023-05-10T18:55:40.723Z,1.25
2023-05-10T19:00:43.401Z,1.70
2023-05-10T19:05:47.226Z,1.55
2023-05-10T19:10:49.119Z,1.30
2023-05-10T19:16:24.280Z,1.55
2023-05-10T19:21:26.837Z,1.30
2023-05-10T19:26:28.979Z,1.08
2023-05-10T19:31:31.264Z,1.30
2023-05-10T19:36:34.374Z,1.05
2023-05-10T19:41:36.273Z,1.08
2023-05-10T19:46:39.432Z,1.20
2023-05-10T19:51:41.617Z,1.02
2023-05-10T19:56:43.684Z,1.20
2023-05-10T20:01:46.368Z,1.48
2023-05-10T20:06:48.493Z,1.27
2023-05-10T20:11:50.363Z,1.20
2023-05-10T20:16:52.447Z,1.17
2023-05-10T20:21:56.200Z,1.38
2023-05-10T20:26:58.566Z,1.67
2023-05-10T20:32:00.398Z,1.30
2023-05-10T20:37:03.826Z,1.45
2023-05-10T20:42:06.031Z,1.38
2023-05-10T20:47:08.357Z,1.17
2023-05-10T20:52:10.903Z,1.15
2023-05-10T20:57:13.061Z,3.97
2023-05-10T21:02:14.978Z,3.80
2023-05-10T21:07:17.104Z,2.20
2023-05-10T21:12:19.162Z,1.70
2023-05-10T21:17:21.041Z,1.42
2023-05-10T21:22:23.118Z,1.70
2023-05-10T21:27:25.057Z,2.20
2023-05-10T21:32:26.933Z,2.67
2023-05-10T21:37:28.743Z,2.78
2023-05-10T21:42:31.539Z,2.13
2023-05-10T21:47:34.340Z,2.40
2023-05-10T21:52:37.027Z,2.05
2023-05-10T21:57:38.870Z,2.53
2023-05-10T22:02:40.979Z,2.80
2023-05-10T22:07:42.922Z,2.10
2023-05-10T22:12:44.737Z,2.00
2023-05-10T22:17:46.609Z,2.40
2023-05-10T22:22:48.478Z,1.90
2023-05-10T22:27:50.688Z,2.05
2023-05-10T22:32:52.693Z,1.90
2023-05-10T22:37:54.551Z,1.95
2023-05-10T22:42:56.629Z,1.67
2023-05-10T22:47:59.880Z,1.75
2023-05-10T22:53:01.675Z,1.83
2023-05-10T22:58:03.640Z,2.00
2023-05-10T23:03:06.810Z,2.05
2023-05-10T23:08:08.665Z,2.28
2023-05-10T23:13:10.763Z,1.83
2023-05-10T23:18:13.397Z,1.73
2023-05-10T23:23:15.858Z,1.95
2023-05-10T23:28:18.029Z,1.90
2023-05-10T23:33:19.912Z,1.98
2023-05-10T23:38:21.917Z,1.92
2023-05-10T23:43:25.306Z,1.92
2023-05-10T23:48:27.431Z,1.92
2023-05-10T23:53:29.366Z,2.00
2023-05-10T23:58:31.642Z,2.13
